Time;durP1;ratioP1;P1;durP2;ratioP2;P2;SDS_P1;SDS_P2;PMS_P1;PMS_P2;Temp;Humidity;BMP_temperature;BMP_pressure;BME280_temperature;BME280_humidity;BME280_pressure;Samples;Min_cycle;Max_cycle;Signal;HPM_P1;HPM_P2
2023/04/15 00:01:04;;;;;;;7.03;6.32;;;7.60;99.90;;;;;;5118084;28;20432;-60
2023/04/15 00:03:33;;;;;;;10.02;6.40;;;7.50;99.90;;;;;;5118190;27;20100;-60
2023/04/15 00:06:01;;;;;;;7.72;6.65;;;7.50;99.90;;;;;;5117787;27;20043;-59
2023/04/15 00:08:28;;;;;;;7.43;6.50;;;7.40;99.90;;;;;;5104048;28;20044;-59
2023/04/15 00:10:55;;;;;;;7.75;7.05;;;7.40;99.90;;;;;;5096980;28;20096;-59
2023/04/15 00:13:22;;;;;;;8.73;6.93;;;7.40;99.90;;;;;;5097537;28;20102;-58
2023/04/15 00:15:49;;;;;;;7.53;6.72;;;7.40;99.90;;;;;;5097141;28;20124;-59
2023/04/15 00:18:16;;;;;;;7.63;6.78;;;7.40;99.90;;;;;;5096934;28;20073;-59
2023/04/15 00:20:42;;;;;;;9.10;5.95;;;7.40;99.90;;;;;;5097253;28;20044;-59
2023/04/15 00:23:09;;;;;;;6.93;5.68;;;7.40;99.90;;;;;;5097489;28;20482;-59
2023/04/15 00:25:36;;;;;;;6.60;5.38;;;7.40;99.90;;;;;;5096875;28;20055;-59
2023/04/15 00:28:02;;;;;;;6.05;5.45;;;7.40;99.90;;;;;;5097257;28;20085;-59
2023/04/15 00:30:30;;;;;;;5.70;4.40;;;7.40;99.90;;;;;;5096716;28;20044;-59
2023/04/15 00:32:57;;;;;;;4.63;3.40;;;7.40;99.90;;;;;;5095862;28;20478;-59
2023/04/15 00:35:24;;;;;;;3.80;3.38;;;7.40;99.90;;;;;;5095738;28;20044;-59
2023/04/15 00:37:51;;;;;;;4.28;3.08;;;7.40;99.90;;;;;;5095820;28;20036;-59
2023/04/15 00:40:18;;;;;;;3.88;3.22;;;7.40;99.90;;;;;;5096609;28;20371;-59
2023/04/15 00:42:45;;;;;;;4.13;3.17;;;7.40;99.90;;;;;;5096558;28;20125;-59
2023/04/15 00:45:12;;;;;;;4.63;3.55;;;7.40;99.90;;;;;;5095452;28;20040;-59
2023/04/15 00:47:40;;;;;;;6.15;3.67;;;7.40;99.90;;;;;;5095812;28;20498;-59
2023/04/15 00:50:07;;;;;;;4.72;3.42;;;7.40;99.90;;;;;;5096859;28;20039;-59
2023/04/15 00:52:34;;;;;;;5.45;3.65;;;7.40;99.90;;;;;;5095363;28;20075;-58
2023/04/15 00:55:01;;;;;;;7.13;4.22;;;7.40;99.90;;;;;;5096895;28;20120;-59
2023/04/15 00:57:29;;;;;;;4.93;4.20;;;7.40;99.90;;;;;;5096611;28;20520;-59
2023/04/15 00:59:56;;;;;;;4.63;3.92;;;7.40;99.90;;;;;;5096723;28;20044;-59
2023/04/15 01:02:22;;;;;;;5.10;4.18;;;7.40;99.90;;;;;;5095596;28;20138;-59
2023/04/15 01:04:49;;;;;;;5.63;4.00;;;7.40;99.90;;;;;;5096461;28;20044;-60
2023/04/15 01:07:16;;;;;;;5.22;4.32;;;7.40;99.90;;;;;;5096720;28;20051;-60
2023/04/15 01:09:44;;;;;;;5.95;4.30;;;7.40;99.90;;;;;;5096259;28;20097;-59
2023/04/15 01:12:11;;;;;;;9.10;4.97;;;7.40;99.90;;;;;;5096592;28;20442;-59
2023/04/15 01:14:38;;;;;;;6.22;5.40;;;7.40;99.90;;;;;;5096432;28;20048;-59
2023/04/15 01:17:05;;;;;;;7.13;5.40;;;7.40;99.90;;;;;;5096589;28;20432;-59
2023/04/15 01:19:32;;;;;;;6.50;5.25;;;7.40;99.90;;;;;;5095819;28;20040;-60
2023/04/15 01:21:58;;;;;;;7.13;5.00;;;7.40;99.90;;;;;;5078006;28;20043;-60
2023/04/15 01:24:26;;;;;;;7.63;6.07;;;7.40;99.90;;;;;;5096038;28;20561;-59
2023/04/15 01:26:53;;;;;;;5.75;5.15;;;7.40;99.90;;;;;;5095004;28;20071;-59
2023/04/15 01:29:20;;;;;;;7.30;4.97;;;7.40;99.90;;;;;;5077636;28;20047;-59
2023/04/15 01:31:47;;;;;;;5.95;5.03;;;7.40;99.90;;;;;;5095926;28;20047;-59
2023/04/15 01:34:15;;;;;;;6.93;5.70;;;7.40;99.90;;;;;;5096234;28;20036;-59
2023/04/15 01:36:41;;;;;;;8.57;5.70;;;7.40;99.90;;;;;;5094441;28;20479;-60
2023/04/15 01:39:08;;;;;;;8.13;5.68;;;7.40;99.90;;;;;;5095827;28;20040;-59
2023/04/15 01:41:35;;;;;;;6.82;5.28;;;7.40;99.90;;;;;;5094721;28;20108;-59
2023/04/15 01:44:02;;;;;;;7.07;5.47;;;7.40;99.90;;;;;;5095417;28;20391;-58
2023/04/15 01:46:28;;;;;;;6.97;5.18;;;7.40;99.90;;;;;;5094305;28;20040;-59
2023/04/15 01:48:55;;;;;;;6.35;4.78;;;7.40;99.90;;;;;;5095847;28;20089;-59
2023/04/15 01:51:24;;;;;;;5.75;4.57;;;7.40;99.90;;;;;;5093606;28;20041;-59
2023/04/15 01:53:51;;;;;;;6.55;4.63;;;7.40;99.90;;;;;;5095939;28;20115;-59
2023/04/15 01:56:17;;;;;;;6.57;4.20;;;7.40;99.90;;;;;;5094250;28;20050;-56
2023/04/15 01:58:45;;;;;;;5.95;4.60;;;7.30;99.90;;;;;;5094045;28;20040;-59
2023/04/15 02:01:12;;;;;;;5.28;4.38;;;7.30;99.90;;;;;;5093861;28;20048;-56
2023/04/15 02:03:38;;;;;;;7.35;4.93;;;7.30;99.90;;;;;;5095038;28;20067;-59
2023/04/15 02:06:05;;;;;;;7.15;4.55;;;7.40;99.90;;;;;;5077549;28;20433;-56
2023/04/15 02:08:32;;;;;;;5.15;4.20;;;7.40;99.90;;;;;;5094883;28;20043;-57
2023/04/15 02:11:00;;;;;;;4.90;4.00;;;7.30;99.90;;;;;;5094649;28;20032;-53
2023/04/15 02:13:27;;;;;;;4.97;4.00;;;7.30;99.90;;;;;;5093535;28;20063;-53
2023/04/15 02:15:55;;;;;;;6.22;4.30;;;7.30;99.90;;;;;;5093728;28;20040;-60
2023/04/15 02:18:22;;;;;;;5.93;4.07;;;7.20;99.90;;;;;;5094673;28;20039;-59
2023/04/15 02:20:49;;;;;;;6.28;4.15;;;7.20;99.90;;;;;;5093948;28;20044;-59
2023/04/15 02:23:16;;;;;;;8.70;4.75;;;7.20;99.90;;;;;;5093440;28;20048;-59
2023/04/15 02:25:43;;;;;;;6.57;5.05;;;7.20;99.90;;;;;;5093382;28;20529;-60
2023/04/15 02:28:19;;;;;;;6.13;4.82;;;7.20;99.90;;;;;;5093700;28;20052;-59
2023/04/15 02:30:46;;;;;;;6.20;5.10;;;7.20;99.90;;;;;;5093144;28;20067;-59
2023/04/15 02:33:13;;;;;;;6.35;4.95;;;7.20;99.90;;;;;;5094838;28;20036;-59
2023/04/15 02:35:43;;;;;;;6.13;5.20;;;7.20;99.90;;;;;;5095060;28;20044;-59
2023/04/15 02:38:10;;;;;;;5.97;4.95;;;7.20;99.90;;;;;;5093924;28;20142;-59
2023/04/15 02:40:37;;;;;;;7.18;4.40;;;7.10;99.90;;;;;;5093105;28;20044;-59
2023/04/15 02:43:06;;;;;;;4.82;4.32;;;7.10;99.90;;;;;;5093569;28;20048;-59
2023/04/15 02:45:33;;;;;;;5.45;4.03;;;7.10;99.90;;;;;;5093052;28;20127;-60
2023/04/15 02:48:05;;;;;;;4.82;4.10;;;7.10;99.90;;;;;;5092929;28;20055;-59
2023/04/15 02:50:32;;;;;;;4.82;3.40;;;7.10;99.90;;;;;;5092910;28;20074;-59
2023/04/15 02:53:00;;;;;;;4.70;3.90;;;7.00;99.90;;;;;;5093426;28;20055;-59
2023/04/15 02:55:28;;;;;;;4.40;3.65;;;7.00;99.90;;;;;;5092816;28;20093;-59
2023/04/15 02:57:54;;;;;;;4.10;3.70;;;7.00;99.90;;;;;;5093774;28;20363;-59
2023/04/15 03:00:24;;;;;;;4.93;3.65;;;7.00;99.90;;;;;;5092609;28;20040;-59
2023/04/15 03:02:55;;;;;;;3.78;3.30;;;7.00;99.90;;;;;;5094582;28;20093;-60
2023/04/15 03:05:24;;;;;;;3.83;2.83;;;6.90;99.90;;;;;;5094371;28;20570;-58
2023/04/15 03:07:51;;;;;;;4.85;3.22;;;6.90;99.90;;;;;;5094311;28;20048;-59
2023/04/15 03:10:18;;;;;;;4.43;3.25;;;6.90;99.90;;;;;;5092644;28;20078;-60
2023/04/15 03:12:45;;;;;;;4.57;3.10;;;6.90;99.90;;;;;;5092483;28;20123;-60
2023/04/15 03:15:16;;;;;;;3.67;3.17;;;6.90;99.90;;;;;;5093059;28;20052;-59
2023/04/15 03:17:48;;;;;;;5.63;3.80;;;6.90;99.90;;;;;;5094363;28;20051;-59
2023/04/15 03:20:15;;;;;;;4.47;3.60;;;6.90;99.90;;;;;;5092486;28;20060;-59
2023/04/15 03:22:42;;;;;;;4.28;3.83;;;6.90;99.90;;;;;;5092932;28;20050;-60
2023/04/15 03:25:10;;;;;;;4.38;3.75;;;6.90;99.90;;;;;;5092462;28;20497;-59
2023/04/15 03:27:37;;;;;;;6.13;4.30;;;6.90;99.90;;;;;;5092922;28;20364;-60
2023/04/15 03:30:04;;;;;;;4.38;3.90;;;6.90;99.90;;;;;;5092815;28;20495;-59
2023/04/15 03:32:32;;;;;;;4.57;4.00;;;6.90;99.90;;;;;;5091629;28;20047;-60
2023/04/15 03:34:59;;;;;;;7.10;4.40;;;6.90;99.90;;;;;;5075744;28;20096;-59
2023/04/15 03:37:26;;;;;;;4.90;4.35;;;6.90;99.90;;;;;;5092683;28;20043;-59
2023/04/15 03:39:53;;;;;;;5.43;4.68;;;6.90;99.90;;;;;;5093550;28;20043;-60
2023/04/15 03:42:19;;;;;;;5.95;4.47;;;6.90;99.90;;;;;;5093943;28;20082;-60
2023/04/15 03:44:46;;;;;;;5.50;5.00;;;6.90;99.90;;;;;;5094063;28;20101;-60
2023/04/15 03:47:13;;;;;;;5.78;5.00;;;6.90;99.90;;;;;;5093846;28;20128;-60
2023/04/15 03:49:40;;;;;;;6.78;5.65;;;6.90;99.90;;;;;;5093433;28;20405;-60
2023/04/15 03:52:06;;;;;;;6.40;4.68;;;6.80;99.90;;;;;;5093463;28;20075;-60
2023/04/15 03:54:33;;;;;;;5.88;5.00;;;6.80;99.90;;;;;;5093571;28;20476;-60
2023/04/15 03:57:00;;;;;;;5.82;5.03;;;6.90;99.90;;;;;;5093770;28;20067;-60
2023/04/15 03:59:27;;;;;;;5.65;5.03;;;6.80;99.90;;;;;;5093137;28;20047;-60
2023/04/15 04:01:54;;;;;;;6.00;5.40;;;6.80;99.90;;;;;;5093444;28;20043;-59
2023/04/15 04:04:21;;;;;;;6.47;4.85;;;6.80;99.90;;;;;;5093693;28;20040;-60
2023/04/15 04:06:48;;;;;;;5.28;4.75;;;6.80;99.90;;;;;;5093295;28;20475;-60
2023/04/15 04:09:15;;;;;;;4.95;4.32;;;6.90;99.90;;;;;;5093902;28;20040;-60
2023/04/15 04:11:41;;;;;;;6.30;4.78;;;6.90;99.90;;;;;;5093672;28;20046;-59
2023/04/15 04:14:08;;;;;;;5.25;4.53;;;6.80;99.90;;;;;;5093800;28;20467;-59
2023/04/15 04:16:35;;;;;;;5.30;4.80;;;6.80;99.90;;;;;;5093186;28;20467;-60
2023/04/15 04:19:02;;;;;;;4.97;4.47;;;6.90;99.90;;;;;;5093398;28;20425;-60
2023/04/15 04:21:29;;;;;;;6.63;4.57;;;6.90;99.90;;;;;;5093192;28;20048;-60
2023/04/15 04:23:57;;;;;;;5.43;4.63;;;6.90;99.90;;;;;;5093686;28;20052;-59
2023/04/15 04:26:24;;;;;;;4.80;4.40;;;6.90;99.90;;;;;;5093598;28;20051;-60
2023/04/15 04:28:51;;;;;;;4.57;4.15;;;6.80;99.90;;;;;;5091853;28;20551;-60
2023/04/15 04:31:18;;;;;;;4.45;4.05;;;6.90;99.90;;;;;;5091710;28;20054;-59
2023/04/15 04:33:45;;;;;;;4.82;4.28;;;6.80;99.90;;;;;;5093451;28;20123;-60
2023/04/15 04:36:11;;;;;;;5.13;4.65;;;6.80;99.90;;;;;;5093031;28;20060;-60
2023/04/15 04:38:38;;;;;;;5.40;4.20;;;6.80;99.90;;;;;;5093624;28;20105;-60
2023/04/15 04:41:05;;;;;;;5.25;4.75;;;6.90;99.90;;;;;;5092837;28;20421;-60
2023/04/15 04:43:32;;;;;;;5.43;4.93;;;6.90;99.90;;;;;;5094120;28;20040;-59
2023/04/15 04:45:58;;;;;;;5.50;5.00;;;6.80;99.90;;;;;;5096758;28;20064;-61
2023/04/15 04:48:25;;;;;;;5.25;4.75;;;6.80;99.90;;;;;;5095634;28;20044;-60
2023/04/15 04:50:52;;;;;;;5.53;4.95;;;6.90;99.90;;;;;;5096946;28;20086;-60
2023/04/15 04:53:19;;;;;;;5.70;4.63;;;6.90;99.90;;;;;;5096721;28;20056;-61
2023/04/15 04:55:46;;;;;;;5.13;4.72;;;6.90;99.90;;;;;;5097051;28;20089;-60
2023/04/15 04:58:12;;;;;;;5.68;5.07;;;6.90;99.90;;;;;;5097001;28;20048;-60
2023/04/15 05:00:39;;;;;;;6.32;5.55;;;6.90;99.90;;;;;;5096503;28;20132;-59
2023/04/15 05:03:06;;;;;;;6.18;5.15;;;6.90;99.90;;;;;;5096541;28;20036;-59
2023/04/15 05:05:35;;;;;;;5.45;4.93;;;6.90;99.90;;;;;;5096681;28;20070;-60
2023/04/15 05:08:02;;;;;;;5.75;5.15;;;6.90;99.90;;;;;;5096573;28;20328;-60
2023/04/15 05:10:29;;;;;;;5.65;5.15;;;6.90;99.90;;;;;;5096122;28;20147;-60
2023/04/15 05:12:56;;;;;;;5.43;4.85;;;6.90;99.90;;;;;;5096405;28;20079;-60
2023/04/15 05:15:22;;;;;;;6.05;5.15;;;6.90;99.90;;;;;;5095912;28;20578;-60
2023/04/15 05:17:49;;;;;;;6.25;4.80;;;6.90;99.90;;;;;;5095804;28;20040;-60
2023/04/15 05:20:16;;;;;;;5.57;4.72;;;7.00;99.90;;;;;;5095981;28;20131;-59
2023/04/15 05:22:43;;;;;;;5.15;4.65;;;7.00;99.90;;;;;;5096071;28;20395;-60
2023/04/15 05:25:10;;;;;;;5.93;5.15;;;7.00;99.90;;;;;;5095808;28;20123;-59
2023/04/15 05:27:36;;;;;;;6.82;4.50;;;7.00;99.90;;;;;;5095976;28;20376;-60
2023/04/15 05:30:03;;;;;;;5.22;4.72;;;7.00;99.90;;;;;;5095886;28;20046;-60
2023/04/15 05:32:30;;;;;;;5.20;4.70;;;7.00;99.90;;;;;;5094776;28;20055;-60
2023/04/15 05:34:56;;;;;;;4.78;4.28;;;7.00;99.90;;;;;;5095689;28;20040;-59
2023/04/15 05:37:23;;;;;;;4.85;4.35;;;7.00;99.90;;;;;;5095919;28;20094;-60
2023/04/15 05:39:50;;;;;;;5.28;4.78;;;7.00;99.90;;;;;;5095493;28;20097;-60
2023/04/15 05:42:17;;;;;;;5.00;4.50;;;7.00;99.90;;;;;;5095844;28;20097;-59
2023/04/15 05:44:44;;;;;;;5.95;5.35;;;7.00;99.90;;;;;;5099947;28;20077;-60
2023/04/15 05:47:11;;;;;;;5.75;5.18;;;7.10;99.90;;;;;;5116596;28;20044;-61
2023/04/15 05:49:38;;;;;;;5.70;5.13;;;7.10;99.90;;;;;;5116395;27;20040;-60
2023/04/15 05:52:05;;;;;;;6.40;5.80;;;7.10;99.90;;;;;;5115946;28;20381;-61
2023/04/15 05:54:31;;;;;;;7.03;6.32;;;7.10;99.90;;;;;;5115569;28;20040;-60
2023/04/15 05:56:58;;;;;;;6.55;5.95;;;7.10;99.90;;;;;;5114498;28;20040;-60
2023/04/15 05:59:26;;;;;;;6.90;6.20;;;7.10;99.90;;;;;;5115627;27;20043;-59
2023/04/15 06:01:52;;;;;;;7.03;6.03;;;7.10;99.90;;;;;;5116147;28;20047;-59
2023/04/15 06:04:19;;;;;;;8.82;7.13;;;7.20;99.90;;;;;;5116184;27;20047;-59
2023/04/15 06:06:47;;;;;;;8.63;6.85;;;7.20;99.90;;;;;;5115710;28;20044;-59
2023/04/15 06:09:13;;;;;;;8.25;7.53;;;7.20;99.90;;;;;;5115627;28;20039;-57
2023/04/15 06:11:40;;;;;;;8.73;7.93;;;7.30;99.90;;;;;;5115613;27;20044;-59
2023/04/15 06:14:07;;;;;;;8.25;7.45;;;7.30;99.90;;;;;;5115631;28;20459;-58
2023/04/15 06:16:35;;;;;;;8.90;8.10;;;7.30;99.90;;;;;;5115844;28;20036;-59
2023/04/15 06:19:02;;;;;;;8.70;7.63;;;7.30;99.90;;;;;;5115743;28;20114;-59
2023/04/15 06:21:29;;;;;;;8.70;7.82;;;7.40;99.90;;;;;;5115072;28;20043;-60
2023/04/15 06:23:55;;;;;;;8.60;7.80;;;7.30;99.90;;;;;;5115286;28;20115;-60
2023/04/15 06:26:22;;;;;;;11.80;9.02;;;7.40;99.90;;;;;;5115356;28;20066;-60
2023/04/15 06:28:49;;;;;;;8.82;7.93;;;7.40;99.90;;;;;;5097555;28;20051;-60
2023/04/15 06:31:16;;;;;;;8.90;8.00;;;7.40;99.90;;;;;;5115463;28;20089;-59
2023/04/15 06:33:42;;;;;;;8.73;7.93;;;7.40;99.90;;;;;;5114719;28;20035;-60
2023/04/15 06:36:09;;;;;;;8.25;7.45;;;7.50;99.90;;;;;;5115122;28;20100;-60
2023/04/15 06:38:36;;;;;;;8.57;7.80;;;7.50;99.90;;;;;;5114863;28;20039;-59
2023/04/15 06:41:03;;;;;;;7.95;7.20;;;7.50;99.90;;;;;;5114808;28;20164;-59
2023/04/15 06:43:29;;;;;;;7.57;6.88;;;7.50;99.90;;;;;;5115311;28;20047;-59
2023/04/15 06:45:57;;;;;;;7.05;6.35;;;7.50;99.90;;;;;;5115402;28;20039;-59
2023/04/15 06:48:23;;;;;;;7.95;6.43;;;7.50;99.90;;;;;;5114713;28;20050;-59
2023/04/15 06:50:50;;;;;;;6.85;6.15;;;7.50;99.90;;;;;;5114931;28;20101;-60
2023/04/15 06:53:17;;;;;;;6.97;6.22;;;7.60;99.90;;;;;;5114920;28;20052;-59
2023/04/15 06:55:44;;;;;;;7.25;6.65;;;7.60;99.90;;;;;;5114949;28;20110;-60
2023/04/15 06:58:10;;;;;;;6.82;6.22;;;7.60;99.90;;;;;;5114047;28;20499;-60
2023/04/15 07:00:38;;;;;;;7.15;6.45;;;7.60;99.90;;;;;;5114515;28;20127;-59
2023/04/15 07:03:04;;;;;;;7.07;6.38;;;7.60;99.90;;;;;;5115128;28;20118;-58
2023/04/15 07:05:32;;;;;;;6.60;5.97;;;7.70;99.90;;;;;;5114508;28;20478;-60
2023/04/15 07:07:59;;;;;;;8.50;6.25;;;7.70;99.90;;;;;;5114257;28;20055;-60
2023/04/15 07:10:25;;;;;;;6.57;5.97;;;7.70;99.90;;;;;;5114404;28;20062;-59
2023/04/15 07:12:52;;;;;;;7.13;6.03;;;7.70;99.90;;;;;;5114667;28;20071;-60
2023/04/15 07:15:19;;;;;;;6.20;5.60;;;7.70;99.90;;;;;;5114833;28;20057;-58
2023/04/15 07:17:46;;;;;;;6.85;5.90;;;7.70;99.90;;;;;;5113229;28;20100;-59
2023/04/15 07:20:13;;;;;;;6.57;5.97;;;7.70;99.90;;;;;;5114226;28;20040;-59
2023/04/15 07:22:40;;;;;;;6.93;6.05;;;7.70;99.90;;;;;;5114272;28;20050;-60
2023/04/15 07:25:06;;;;;;;6.05;5.28;;;7.70;99.90;;;;;;5113677;28;20127;-60
2023/04/15 07:27:33;;;;;;;9.05;5.75;;;7.70;99.90;;;;;;5113716;28;20487;-59
2023/04/15 07:30:00;;;;;;;6.00;5.40;;;7.70;99.90;;;;;;5114392;28;20035;-60
2023/04/15 07:32:27;;;;;;;5.38;4.88;;;7.80;99.90;;;;;;5114443;28;20451;-60
2023/04/15 07:34:54;;;;;;;5.88;5.30;;;7.80;99.90;;;;;;5114236;28;20059;-60
2023/04/15 07:37:20;;;;;;;7.55;5.25;;;7.80;99.90;;;;;;5114442;28;20038;-60
2023/04/15 07:39:47;;;;;;;6.00;5.38;;;7.80;99.90;;;;;;5114052;28;20036;-61
2023/04/15 07:42:14;;;;;;;6.50;5.35;;;7.80;99.90;;;;;;5112620;28;20044;-61
2023/04/15 07:44:41;;;;;;;5.25;4.75;;;7.90;99.90;;;;;;5112530;28;20040;-61
2023/04/15 07:47:08;;;;;;;5.15;4.30;;;7.90;99.90;;;;;;5112542;28;20425;-60
2023/04/15 07:49:35;;;;;;;4.82;4.32;;;7.90;99.90;;;;;;5112411;28;20068;-59
2023/04/15 07:52:02;;;;;;;4.82;4.18;;;7.90;99.90;;;;;;5111943;28;20062;-59
2023/04/15 07:54:29;;;;;;;6.78;4.28;;;7.90;99.90;;;;;;5111848;28;20510;-59
2023/04/15 07:56:56;;;;;;;4.72;4.13;;;7.90;99.90;;;;;;5113821;28;20044;-59
2023/04/15 07:59:22;;;;;;;6.63;4.47;;;7.90;99.90;;;;;;5113979;28;20063;-59
2023/04/15 08:01:49;;;;;;;5.35;4.45;;;7.90;99.90;;;;;;5114431;28;20035;-58
2023/04/15 08:04:16;;;;;;;4.32;3.88;;;7.90;99.90;;;;;;5113959;28;20550;-59
2023/04/15 08:06:43;;;;;;;7.32;4.40;;;7.90;99.90;;;;;;5113952;28;20081;-57
2023/04/15 08:09:10;;;;;;;4.95;3.85;;;7.90;99.90;;;;;;5114251;28;20043;-61
2023/04/15 08:11:37;;;;;;;4.30;3.90;;;8.00;99.90;;;;;;5112549;28;20054;-60
2023/04/15 08:14:03;;;;;;;7.88;4.32;;;8.00;99.90;;;;;;5113507;28;20471;-59
2023/04/15 08:16:30;;;;;;;6.22;4.53;;;8.00;99.90;;;;;;5113688;28;20040;-60
2023/04/15 08:18:57;;;;;;;5.20;4.65;;;8.10;99.90;;;;;;5115093;28;20085;-61
2023/04/15 08:21:24;;;;;;;5.90;4.80;;;8.20;99.90;;;;;;5117799;28;20111;-60
2023/04/15 08:23:51;;;;;;;6.93;4.43;;;8.20;99.90;;;;;;5117580;28;20074;-60
2023/04/15 08:26:18;;;;;;;5.20;4.70;;;8.20;99.90;;;;;;5117666;28;20047;-58
2023/04/15 08:28:45;;;;;;;5.90;4.88;;;8.20;99.90;;;;;;5117662;28;20054;-60
2023/04/15 08:31:11;;;;;;;5.60;5.05;;;8.30;99.90;;;;;;5117238;28;20047;-60
2023/04/15 08:33:38;;;;;;;7.63;5.38;;;8.40;99.90;;;;;;5117708;28;20040;-60
2023/04/15 08:36:06;;;;;;;6.55;5.45;;;8.40;99.90;;;;;;5117344;28;20036;-59
2023/04/15 08:38:33;;;;;;;7.32;5.63;;;8.50;99.90;;;;;;5117244;28;20035;-57
2023/04/15 08:40:59;;;;;;;6.20;5.60;;;8.60;99.90;;;;;;5117189;28;20070;-60
2023/04/15 08:43:27;;;;;;;7.68;5.75;;;8.60;99.90;;;;;;5117129;28;20075;-58
2023/04/15 08:45:54;;;;;;;6.95;5.78;;;8.80;99.90;;;;;;5117368;28;20071;-59
2023/04/15 08:48:23;;;;;;;7.30;6.10;;;8.80;99.90;;;;;;5117143;28;20122;-60
2023/04/15 08:50:50;;;;;;;7.30;5.95;;;8.90;99.90;;;;;;5116864;28;20051;-60
2023/04/15 08:53:16;;;;;;;6.65;5.55;;;9.00;99.90;;;;;;5116537;28;20082;-59
2023/04/15 08:55:44;;;;;;;7.47;6.07;;;9.00;99.90;;;;;;5116747;28;20048;-60
2023/04/15 08:58:11;;;;;;;7.65;6.30;;;9.10;99.90;;;;;;5117112;28;20074;-59
2023/04/15 09:00:38;;;;;;;11.20;5.95;;;9.20;99.90;;;;;;5116784;28;20063;-61
2023/04/15 09:03:05;;;;;;;6.88;6.18;;;9.30;99.90;;;;;;5117234;28;20050;-60
2023/04/15 09:05:32;;;;;;;6.93;5.78;;;9.30;99.90;;;;;;5117209;28;20035;-61
2023/04/15 09:07:59;;;;;;;8.07;6.65;;;9.40;99.90;;;;;;5116517;28;20043;-60
2023/04/15 09:10:26;;;;;;;8.27;6.25;;;9.40;99.90;;;;;;5116375;28;20043;-60
2023/04/15 09:12:53;;;;;;;8.70;5.75;;;9.40;99.90;;;;;;5116419;28;20061;-60
2023/04/15 09:15:19;;;;;;;6.60;5.88;;;9.50;99.90;;;;;;5116803;28;20047;-60
2023/04/15 09:17:47;;;;;;;8.40;6.78;;;9.50;99.90;;;;;;5116399;28;20548;-60
2023/04/15 09:20:14;;;;;;;7.32;6.05;;;9.60;99.90;;;;;;5116387;28;20470;-60
2023/04/15 09:22:41;;;;;;;7.47;6.25;;;9.70;99.90;;;;;;5116894;28;20048;-60
2023/04/15 09:25:07;;;;;;;7.07;6.13;;;9.80;99.90;;;;;;5116342;28;20035;-60
2023/04/15 09:27:34;;;;;;;8.00;6.35;;;10.00;99.90;;;;;;5116647;28;20036;-60
2023/04/15 09:30:01;;;;;;;6.90;6.20;;;10.00;99.90;;;;;;5115921;28;20035;-60
2023/04/15 09:32:28;;;;;;;11.60;7.53;;;10.00;99.90;;;;;;5116517;28;20459;-60
2023/04/15 09:34:55;;;;;;;7.60;6.80;;;9.90;99.90;;;;;;5116798;27;20080;-59
2023/04/15 09:37:22;;;;;;;9.60;7.07;;;9.90;99.90;;;;;;5116429;28;20795;-60
2023/04/15 09:39:58;;;;;;;7.57;6.55;;;10.00;99.90;;;;;;5116487;28;20048;-60
2023/04/15 09:42:26;;;;;;;6.55;5.53;;;10.00;99.90;;;;;;5097906;28;20440;-60
2023/04/15 09:44:52;;;;;;;5.63;4.93;;;10.10;99.90;;;;;;5116271;28;20047;-60
2023/04/15 09:47:21;;;;;;;7.75;5.07;;;10.20;99.90;;;;;;5116342;27;20047;-60
2023/04/15 09:49:47;;;;;;;7.05;5.20;;;10.20;99.90;;;;;;5116378;28;20063;-60
2023/04/15 09:52:14;;;;;;;8.75;5.00;;;10.40;99.90;;;;;;5115751;28;20478;-60
2023/04/15 09:54:41;;;;;;;8.85;4.78;;;10.40;99.90;;;;;;5115786;28;20040;-60
2023/04/15 09:57:08;;;;;;;7.10;4.63;;;10.40;99.90;;;;;;5114648;28;20498;-60
2023/04/15 09:59:36;;;;;;;5.95;3.95;;;10.50;99.90;;;;;;5116017;28;20078;-59
2023/04/15 10:02:02;;;;;;;6.40;3.88;;;10.60;99.90;;;;;;5115665;28;20092;-59
2023/04/15 10:04:29;;;;;;;5.70;4.18;;;10.60;99.90;;;;;;5115694;27;20390;-59
2023/04/15 10:06:56;;;;;;;7.55;4.47;;;10.60;99.90;;;;;;5115912;27;20035;-60
2023/04/15 10:09:23;;;;;;;5.88;4.13;;;10.60;99.90;;;;;;5115410;28;20044;-61
2023/04/15 10:11:50;;;;;;;10.52;4.80;;;10.60;99.90;;;;;;5115827;28;20425;-60
2023/04/15 10:14:16;;;;;;;9.32;4.85;;;10.50;99.90;;;;;;5115916;28;20044;-61
2023/04/15 10:16:44;;;;;;;7.07;4.53;;;10.50;99.90;;;;;;5115415;28;20063;-60
2023/04/15 10:19:11;;;;;;;8.93;5.10;;;10.50;99.90;;;;;;5115039;28;20047;-61
2023/04/15 10:21:38;;;;;;;6.10;4.63;;;10.50;99.90;;;;;;5115609;28;20082;-61
2023/04/15 10:24:05;;;;;;;12.43;4.88;;;10.50;99.90;;;;;;5115016;28;20054;-61
2023/04/15 10:26:31;;;;;;;7.28;4.63;;;10.50;99.90;;;;;;5115387;28;20044;-60
2023/04/15 10:28:58;;;;;;;7.97;5.65;;;10.50;99.90;;;;;;5114929;28;20379;-61
2023/04/15 10:31:25;;;;;;;6.68;5.03;;;10.50;99.90;;;;;;5115451;28;20105;-61
2023/04/15 10:33:52;;;;;;;8.00;5.47;;;10.40;99.90;;;;;;5114016;28;20429;-61
2023/04/15 10:36:19;;;;;;;10.23;5.22;;;10.40;99.90;;;;;;5115268;28;20039;-61
2023/04/15 10:38:46;;;;;;;5.68;4.95;;;10.50;99.90;;;;;;5115336;27;20036;-61
2023/04/15 10:41:13;;;;;;;6.28;4.85;;;10.40;99.90;;;;;;5114382;28;20085;-61
2023/04/15 10:43:40;;;;;;;9.35;5.40;;;10.50;99.90;;;;;;5115435;28;20121;-60
2023/04/15 10:46:07;;;;;;;7.05;4.57;;;10.50;99.90;;;;;;5115250;28;20130;-61
2023/04/15 10:48:33;;;;;;;6.18;4.68;;;10.60;99.90;;;;;;5114850;28;20045;-59
2023/04/15 10:51:04;;;;;;;6.53;4.63;;;10.70;99.90;;;;;;5113809;28;20051;-59
2023/04/15 10:53:30;;;;;;;8.18;4.30;;;10.80;99.90;;;;;;5114765;28;20047;-59
2023/04/15 10:55:57;;;;;;;6.40;4.55;;;10.90;99.90;;;;;;5115151;28;20043;-59
2023/04/15 10:58:24;;;;;;;8.55;4.40;;;11.00;99.90;;;;;;5115053;28;20049;-60
2023/04/15 11:00:51;;;;;;;9.75;4.40;;;11.10;99.90;;;;;;5113058;28;20047;-60
2023/04/15 11:03:18;;;;;;;8.02;4.18;;;11.20;99.90;;;;;;5115150;28;20047;-60
2023/04/15 11:05:45;;;;;;;7.70;5.03;;;11.20;99.90;;;;;;5114751;28;20089;-60
2023/04/15 11:08:12;;;;;;;7.57;4.57;;;11.30;99.90;;;;;;5114256;28;20432;-59
2023/04/15 11:10:39;;;;;;;6.72;4.85;;;11.30;99.90;;;;;;5114127;28;20042;-60
2023/04/15 11:13:06;;;;;;;7.65;4.78;;;11.30;99.90;;;;;;5114956;28;20039;-60
2023/04/15 11:15:32;;;;;;;7.97;4.70;;;11.30;99.90;;;;;;5114179;27;20100;-60
2023/04/15 11:17:59;;;;;;;8.05;4.80;;;11.30;99.90;;;;;;5114394;28;20036;-59
2023/04/15 11:20:26;;;;;;;6.80;5.18;;;11.30;99.90;;;;;;5114636;28;20044;-61
2023/04/15 11:22:53;;;;;;;5.78;4.47;;;11.30;99.90;;;;;;5114024;28;20486;-60
2023/04/15 11:25:40;;;;;;;10.63;4.97;;;11.40;99.90;;;;;;5114554;28;20513;-60
2023/04/15 11:28:07;;;;;;;7.05;4.35;;;11.60;99.90;;;;;;5114277;28;20122;-59
2023/04/15 11:30:34;;;;;;;6.90;4.30;;;11.60;99.90;;;;;;5114175;28;20044;-60
2023/04/15 11:33:01;;;;;;;6.53;4.43;;;11.80;99.90;;;;;;5114264;28;20195;-60
2023/04/15 11:35:28;;;;;;;7.88;4.68;;;11.90;99.90;;;;;;5114014;28;20068;-60
2023/04/15 11:37:55;;;;;;;7.07;3.63;;;11.90;99.90;;;;;;5114289;28;20520;-60
2023/04/15 11:40:21;;;;;;;7.13;3.80;;;11.90;99.90;;;;;;5114382;28;20084;-60
2023/04/15 11:42:48;;;;;;;7.63;3.92;;;12.00;99.90;;;;;;5114592;28;20420;-60
2023/04/15 11:45:15;;;;;;;6.18;3.70;;;12.10;99.90;;;;;;5113905;28;20512;-60
2023/04/15 11:47:42;;;;;;;7.15;3.60;;;12.10;99.90;;;;;;5114213;28;20104;-62
2023/04/15 11:50:09;;;;;;;7.15;4.05;;;12.20;99.90;;;;;;5113744;28;20048;-61
2023/04/15 11:52:36;;;;;;;8.48;4.15;;;12.40;99.90;;;;;;5113650;28;20079;-60
2023/04/15 11:55:03;;;;;;;11.00;4.43;;;12.50;99.90;;;;;;5115708;28;20086;-61
2023/04/15 11:57:30;;;;;;;7.20;3.10;;;12.60;99.90;;;;;;5118254;28;20042;-61
2023/04/15 11:59:57;;;;;;;7.63;3.90;;;12.60;99.90;;;;;;5118189;28;20531;-61
2023/04/15 12:02:23;;;;;;;6.68;3.75;;;12.50;99.90;;;;;;5117106;28;20059;-61
2023/04/15 12:04:50;;;;;;;6.85;3.67;;;12.50;99.90;;;;;;5118612;28;20043;-61
2023/04/15 12:07:17;;;;;;;6.10;3.72;;;12.70;99.90;;;;;;5118119;28;20050;-60
2023/04/15 12:09:44;;;;;;;5.38;3.67;;;12.70;99.90;;;;;;5117665;28;20059;-61
2023/04/15 12:12:11;;;;;;;8.18;4.05;;;12.70;99.90;;;;;;5118085;28;20542;-60
2023/04/15 12:14:38;;;;;;;5.95;3.63;;;12.70;99.90;;;;;;5117825;28;20042;-60
2023/04/15 12:17:05;;;;;;;7.18;3.25;;;12.80;99.90;;;;;;5117872;28;20100;-60
2023/04/15 12:19:31;;;;;;;6.43;3.20;;;12.80;99.90;;;;;;5116211;28;20039;-61
2023/04/15 12:21:59;;;;;;;8.43;3.22;;;12.90;99.90;;;;;;5118033;28;20065;-61
2023/04/15 12:24:26;;;;;;;6.90;3.83;;;13.00;99.90;;;;;;5117517;28;20040;-61
2023/04/15 12:26:53;;;;;;;7.38;4.10;;;13.10;99.90;;;;;;5117660;28;20048;-61
2023/04/15 12:29:21;;;;;;;7.47;4.22;;;13.00;99.90;;;;;;5117878;28;20096;-60
2023/04/15 12:31:48;;;;;;;6.78;3.83;;;12.80;99.90;;;;;;5117418;28;20550;-60
2023/04/15 12:34:15;;;;;;;10.73;4.10;;;12.90;99.90;;;;;;5117840;27;20039;-59
2023/04/15 12:36:42;;;;;;;8.90;4.38;;;12.80;99.90;;;;;;5117351;28;20035;-60
2023/04/15 12:39:09;;;;;;;5.32;3.75;;;13.00;99.90;;;;;;5117563;28;20481;-60
2023/04/15 12:41:36;;;;;;;8.30;4.20;;;13.10;99.90;;;;;;5117603;28;20039;-59
2023/04/15 12:44:02;;;;;;;8.48;4.20;;;13.10;99.90;;;;;;5117677;28;20475;-61
2023/04/15 12:46:30;;;;;;;7.28;3.83;;;13.30;99.90;;;;;;5117236;28;20047;-61
2023/04/15 12:48:57;;;;;;;7.82;3.97;;;13.40;99.90;;;;;;5117329;28;20090;-59
2023/04/15 12:51:23;;;;;;;8.48;3.65;;;13.40;99.90;;;;;;5116960;28;20120;-61